Time;durP1;ratioP1;P1;durP2;ratioP2;P2;SDS_P1;SDS_P2;PMS_P1;PMS_P2;Temp;Humidity;BMP_temperature;BMP_pressure;BME280_temperature;BME280_humidity;BME280_pressure;Samples;Min_cycle;Max_cycle;Signal;HPM_P1;HPM_P2
2022/10/03 00:00:30;;;;;;;4.07;1.75;;;;;;;21.74;46.37;100667.97;6184343;23;20021;-74
2022/10/03 00:03:28;;;;;;;5.68;2.28;;;;;;;22.05;46.52;100706.38;6183079;23;20032;-73
2022/10/03 00:06:08;;;;;;;3.60;2.25;;;;;;;22.19;46.28;100718.28;6185059;23;20028;-73
2022/10/03 00:09:07;;;;;;;5.32;2.05;;;;;;;22.13;46.34;100701.75;6184134;23;20459;-73
2022/10/03 00:11:42;;;;;;;6.40;2.40;;;;;;;22.19;46.72;100715.44;6184099;23;20097;-73
2022/10/03 00:14:23;;;;;;;4.60;2.28;;;;;;;21.97;46.78;100690.25;6183646;23;20487;-73
2022/10/03 00:17:07;;;;;;;5.65;2.45;;;;;;;22.04;46.93;100709.56;6184481;23;20021;-74
2022/10/03 00:19:43;;;;;;;5.38;2.50;;;;;;;21.95;46.90;100701.16;6184376;23;20021;-74
2022/10/03 00:22:20;;;;;;;4.15;2.55;;;;;;;21.84;47.15;100697.94;6159623;23;20099;-72
2022/10/03 00:24:59;;;;;;;6.50;2.70;;;;;;;21.80;47.43;100702.66;6186033;23;20080;-74
2022/10/03 00:28:05;;;;;;;5.57;3.00;;;;;;;21.77;47.52;100700.53;6185622;23;20021;-74
2022/10/03 00:30:58;;;;;;;4.40;2.55;;;;;;;21.79;47.37;100706.69;6186021;23;20017;-75
2022/10/03 00:33:37;;;;;;;4.70;2.70;;;;;;;21.97;47.05;100702.44;6172445;23;20021;-75
2022/10/03 00:36:10;;;;;;;3.78;2.58;;;;;;;21.89;47.12;100703.41;6185793;23;20539;-75
2022/10/03 00:38:58;;;;;;;4.88;2.30;;;;;;;21.79;47.34;100694.50;6186809;23;20027;-75
2022/10/03 00:41:55;;;;;;;6.05;2.78;;;;;;;21.60;47.66;100693.03;6159484;23;20487;-76
2022/10/03 00:44:47;;;;;;;3.75;2.60;;;;;;;21.40;48.13;100674.91;6185496;23;20025;-76
2022/10/03 00:47:41;;;;;;;5.60;2.58;;;;;;;21.41;48.69;100682.22;6159151;23;20025;-76
2022/10/03 00:50:36;;;;;;;5.50;3.10;;;;;;;21.22;48.42;100648.63;6185165;23;20021;-76
2022/10/03 00:53:24;;;;;;;6.28;2.65;;;;;;;21.40;48.28;100669.22;6159571;23;20021;-73
2022/10/03 00:56:12;;;;;;;4.93;2.75;;;;;;;21.33;48.29;100660.38;6185387;23;20021;-72
2022/10/03 00:58:52;;;;;;;4.63;2.72;;;;;;;21.42;47.95;100666.00;6186116;23;20028;-73
2022/10/03 01:01:41;;;;;;;4.85;2.33;;;;;;;21.45;47.77;100668.16;6186604;23;20017;-73
2022/10/03 01:04:33;;;;;;;5.73;2.83;;;;;;;21.43;47.97;100676.19;6185153;23;20040;-73
2022/10/03 01:07:05;;;;;;;8.30;2.72;;;;;;;21.45;47.83;100677.50;6185812;23;20531;-72
2022/10/03 01:09:32;;;;;;;4.32;2.30;;;;;;;21.46;47.64;100679.16;6185632;23;20032;-72
2022/10/03 01:12:51;;;;;;;4.10;2.80;;;;;;;21.28;47.99;100666.28;6185489;23;20027;-72
2022/10/03 01:15:42;;;;;;;6.05;2.35;;;;;;;21.01;48.61;100654.38;6107762;23;20032;-74
2022/10/03 01:18:12;;;;;;;3.83;2.10;;;;;;;21.01;48.93;100668.56;6159708;23;20025;-73
2022/10/03 01:20:52;;;;;;;;;;;;;;;20.76;49.75;100655.44;6186584;23;20025;-73
2022/10/03 01:23:37;;;;;;;;;;;;;;;20.61;50.25;100661.72;6186478;23;19917;-74
2022/10/03 01:26:06;;;;;;;4.20;2.38;;;;;;;20.63;50.08;100673.56;6186483;23;20243;-73
2022/10/03 01:32:01;;;;;;;7.88;2.85;;;;;;;20.36;51.15;100664.38;6184712;23;20021;-76
2022/10/03 01:34:45;;;;;;;4.05;2.35;;;;;;;20.30;51.28;100665.75;6185598;23;20031;-78
2022/10/03 01:37:30;;;;;;;4.65;2.78;;;;;;;20.30;51.55;100665.75;6185807;23;20025;-78
2022/10/03 01:40:06;;;;;;;7.47;2.80;;;;;;;20.31;51.53;100667.44;6184927;23;20029;-76
2022/10/03 01:42:48;;;;;;;10.13;3.08;;;;;;;20.42;51.58;100671.53;6185416;23;20021;-76
2022/10/03 01:45:42;;;;;;;5.68;2.30;;;;;;;20.43;51.33;100676.00;6159936;23;20021;-77
2022/10/03 01:48:20;;;;;;;3.70;2.80;;;;;;;20.40;51.56;100676.69;6185395;23;20029;-78
2022/10/03 01:51:10;;;;;;;6.30;3.25;;;;;;;20.16;52.32;100676.53;6186077;23;20028;-77
2022/10/03 01:53:48;;;;;;;6.13;2.53;;;;;;;20.07;52.90;100671.75;6128084;23;20048;-77
2022/10/03 01:56:25;;;;;;;5.35;2.75;;;;;;;19.97;52.99;100666.47;6185919;23;20039;-77
2022/10/03 01:59:05;;;;;;;4.03;3.00;;;;;;;20.15;52.46;100675.69;6187110;23;20352;-77
2022/10/03 02:02:00;;;;;;;2.70;2.08;;;;;;;20.27;51.84;100684.31;6190356;23;20021;-76
2022/10/03 02:04:52;;;;;;;6.50;2.70;;;;;;;20.44;51.45;100686.19;6189245;23;20029;-76
2022/10/03 02:07:39;;;;;;;4.57;2.88;;;;;;;20.46;51.29;100678.16;6185759;23;20027;-76
2022/10/03 02:10:23;;;;;;;5.60;2.50;;;;;;;20.42;51.10;100668.69;6184796;23;20021;-77
2022/10/03 02:13:21;;;;;;;5.88;2.45;;;;;;;20.40;51.75;100665.34;6184703;23;20021;-77
2022/10/03 02:15:53;;;;;;;5.50;2.30;;;;;;;20.33;51.75;100667.91;6185024;23;20021;-77
2022/10/03 02:18:35;;;;;;;3.63;2.15;;;;;;;20.32;51.83;100663.41;6185246;23;20032;-77
2022/10/03 02:21:14;;;;;;;3.53;2.13;;;;;;;20.37;51.58;100668.88;6184941;23;20025;-76
2022/10/03 02:23:44;;;;;;;11.25;2.85;;;;;;;20.36;51.72;100664.38;6184665;23;20029;-77
2022/10/03 02:26:46;;;;;;;;;;;;;;;20.12;52.55;100665.88;6185360;23;20021;-77
2022/10/03 02:29:35;;;;;;;6.07;4.00;;;;;;;20.02;52.81;100668.25;6083617;23;19925;-78
2022/10/03 02:32:39;;;;;;;5.90;3.70;;;;;;;19.87;52.98;100664.00;6202418;23;20029;-77
2022/10/03 02:35:21;;;;;;;8.30;4.30;;;;;;;19.80;53.45;100664.53;6207837;23;20021;-75
2022/10/03 02:37:57;;;;;;;6.10;3.55;;;;;;;19.87;53.04;100666.84;6191553;23;20033;-75
2022/10/03 02:40:36;;;;;;;6.95;3.60;;;;;;;19.99;52.69;100649.94;6187107;23;20028;-74
2022/10/03 02:43:40;;;;;;;4.13;2.40;;;;;;;19.97;52.77;100652.28;6186382;23;20352;-73
2022/10/03 02:46:39;;;;;;;4.80;2.30;;;;;;;20.08;52.47;100656.38;6184803;23;20031;-76
2022/10/03 02:49:17;;;;;;;5.50;2.40;;;;;;;20.16;52.19;100656.69;6185861;23;20041;-77
2022/10/03 02:52:12;;;;;;;4.80;4.00;;;;;;;20.24;51.78;100641.59;6185270;23;20074;-75
2022/10/03 02:55:16;;;;;;;6.95;4.32;;;;;;;20.15;51.94;100646.53;6184752;23;20028;-75
2022/10/03 02:58:10;;;;;;;4.72;3.30;;;;;;;20.12;52.08;100642.34;6184993;23;20452;-75
2022/10/03 03:00:58;;;;;;;4.03;2.70;;;;;;;19.97;52.18;100642.97;6184039;23;20021;-74
2022/10/03 03:04:13;;;;;;;3.33;2.25;;;;;;;19.55;52.44;100595.44;6184615;23;20025;-78
2022/10/03 03:07:03;;;;;;;3.22;2.05;;;;;;;19.92;52.35;100646.81;6173480;23;20384;-75
2022/10/03 03:09:49;;;;;;;4.40;1.83;;;;;;;19.91;52.22;100653.66;6182721;23;20456;-75
2022/10/03 03:12:18;;;;;;;4.63;1.90;;;;;;;19.94;52.28;100640.81;6184149;23;20021;-75
2022/10/03 03:15:10;;;;;;;4.18;1.63;;;;;;;20.06;51.56;100638.88;6184461;23;20025;-74
2022/10/03 03:18:03;;;;;;;6.03;2.03;;;;;;;20.15;51.48;100633.16;6184965;23;20028;-75
2022/10/03 03:20:51;;;;;;;2.83;1.60;;;;;;;20.22;51.01;100635.47;6158995;23;20017;-74
2022/10/03 03:23:36;;;;;;;4.30;1.77;;;;;;;20.17;51.40;100633.66;6184843;23;20024;-74
2022/10/03 03:26:03;;;;;;;4.53;2.17;;;;;;;20.28;50.83;100628.44;6184177;23;20021;-73
2022/10/03 03:28:38;;;;;;;5.70;2.38;;;;;;;20.26;50.70;100625.91;6184117;23;20025;-75
2022/10/03 03:31:13;;;;;;;2.63;2.03;;;;;;;20.35;50.43;100634.38;6183623;23;20033;-75
2022/10/03 03:33:57;;;;;;;2.88;1.60;;;;;;;20.33;50.58;100619.69;6185246;23;20021;-75
2022/10/03 03:36:32;;;;;;;4.95;1.90;;;;;;;20.33;50.59;100622.53;6177342;23;20044;-74
2022/10/03 03:39:08;;;;;;;4.60;2.15;;;;;;;20.21;50.35;100608.28;6170097;23;20028;-74
2022/10/03 03:42:02;;;;;;;3.35;2.00;;;;;;;20.36;50.36;100613.34;6179421;23;20021;-73
2022/10/03 03:44:57;;;;;;;3.10;1.73;;;;;;;20.36;50.03;100624.69;6184202;23;20021;-74
2022/10/03 03:47:53;;;;;;;3.25;1.95;;;;;;;20.28;50.38;100617.91;6184835;23;20028;-75
2022/10/03 03:50:47;;;;;;;3.90;1.67;;;;;;;20.22;50.65;100615.63;6184561;23;20053;-74
2022/10/03 03:53:43;;;;;;;3.38;1.60;;;;;;;20.12;50.58;100614.00;6185037;23;20021;-75
2022/10/03 03:56:29;;;;;;;3.30;1.52;;;;;;;20.06;50.63;100621.88;6185893;23;20352;-75
2022/10/03 03:59:05;;;;;;;2.55;1.70;;;;;;;19.96;50.72;100619.44;6187167;23;20025;-74
2022/10/03 04:01:51;;;;;;;3.28;1.67;;;;;;;19.86;51.17;100612.19;6187175;23;20360;-74
2022/10/03 04:04:55;;;;;;;2.55;1.50;;;;;;;19.83;50.87;100610.03;6161108;23;20526;-74
2022/10/03 04:07:25;;;;;;;3.65;1.52;;;;;;;19.85;51.01;100618.16;6160358;23;20028;-77
2022/10/03 04:10:16;;;;;;;2.85;1.75;;;;;;;19.82;50.95;100610.34;6186332;23;20028;-77
2022/10/03 04:12:46;;;;;;;3.58;1.60;;;;;;;19.86;50.82;100609.34;6186873;23;20025;-77
2022/10/03 04:15:28;;;;;;;3.58;1.95;;;;;;;19.90;50.67;100618.00;6160630;23;20029;-73
2022/10/03 04:21:20;;;;;;;1.80;1.50;;;;;;;19.80;50.58;100626.88;6186644;23;20021;-75
2022/10/03 04:23:50;;;;;;;1.45;1.27;;;;;;;19.74;50.83;100626.22;6186916;23;20021;-75
2022/10/03 04:26:41;;;;;;;2.50;1.67;;;;;;;19.57;51.09;100623.44;6186894;23;20021;-73
2022/10/03 04:29:17;;;;;;;1.58;1.40;;;;;;;19.45;51.34;100624.13;6186711;23;20032;-74
2022/10/03 04:32:11;;;;;;;1.83;1.23;;;;;;;19.10;51.54;100590.28;6160193;23;20452;-74
2022/10/03 04:35:12;;;;;;;2.60;1.40;;;;;;;19.29;51.91;100631.53;6161149;23;20021;-75
2022/10/03 04:38:10;;;;;;;3.00;1.27;;;;;;;19.19;52.16;100629.91;6186295;23;20025;-74
2022/10/03 04:41:10;;;;;;;2.28;1.40;;;;;;;19.13;51.77;100629.25;6186599;23;20017;-73
2022/10/03 04:43:45;;;;;;;9.00;2.00;;;;;;;19.09;51.84;100616.94;6186842;23;20043;-73
2022/10/03 04:46:34;;;;;;;2.63;1.90;;;;;;;18.99;52.14;100611.63;6186784;23;20021;-74
2022/10/03 04:49:11;;;;;;;4.78;2.50;;;;;;;19.11;51.91;100631.59;6163297;23;20021;-73
2022/10/03 04:51:43;;;;;;;3.33;1.88;;;;;;;19.07;51.89;100629.75;6186549;23;20021;-73
2022/10/03 04:54:31;;;;;;;3.38;1.50;;;;;;;19.03;52.13;100621.09;6160740;23;20025;-74
2022/10/03 04:57:02;;;;;;;3.38;2.05;;;;;;;19.06;52.29;100626.09;6184758;23;20025;-74
2022/10/03 04:59:42;;;;;;;3.55;1.75;;;;;;;18.86;52.21;100598.50;6185817;23;20025;-73
2022/10/03 05:02:13;;;;;;;2.67;1.90;;;;;;;19.07;51.94;100619.25;6186520;23;20021;-73
2022/10/03 05:05:06;;;;;;;3.45;2.30;;;;;;;19.09;51.67;100624.59;6159917;23;20392;-73
2022/10/03 05:08:03;;;;;;;2.83;1.92;;;;;;;19.09;51.75;100625.44;6185348;23;20025;-74
2022/10/03 05:10:43;;;;;;;1.83;1.50;;;;;;;19.14;51.42;100616.78;6186353;23;20021;-73
2022/10/03 05:13:17;;;;;;;2.30;1.60;;;;;;;18.99;51.43;100597.47;6186839;23;20347;-77
2022/10/03 05:15:50;;;;;;;3.50;1.35;;;;;;;19.22;51.40;100631.25;6185901;23;20021;-75
2022/10/03 05:18:33;;;;;;;1.92;1.48;;;;;;;19.20;51.23;100616.56;6160637;23;20460;-75
2022/10/03 05:21:19;;;;;;;2.22;1.60;;;;;;;19.17;51.35;100618.91;6186508;23;20027;-77
2022/10/03 05:24:14;;;;;;;3.72;1.80;;;;;;;19.12;51.38;100619.09;6186828;23;20548;-79
2022/10/03 05:27:09;;;;;;;1.65;1.30;;;;;;;18.94;51.38;100598.50;6160659;23;20021;-78
2022/10/03 05:30:07;;;;;;;7.88;1.65;;;;;;;19.11;51.38;100623.09;6186850;23;20032;-79
2022/10/03 05:32:47;;;;;;;2.03;1.30;;;;;;;19.13;51.45;100640.56;6176546;23;20471;-73
2022/10/03 05:35:51;;;;;;;3.38;1.80;;;;;;;19.02;51.30;100625.09;6186162;23;20025;-76
2022/10/03 05:38:36;;;;;;;2.45;1.40;;;;;;;18.92;51.64;100628.28;6185730;23;20020;-77
2022/10/03 05:41:28;;;;;;;2.78;1.17;;;;;;;18.99;51.38;100617.28;6185952;23;20017;-77
2022/10/03 05:44:41;;;;;;;2.72;1.58;;;;;;;18.88;51.28;100613.16;6185235;23;20416;-74
2022/10/03 05:50:37;;;;;;;1.95;1.30;;;;;;;18.95;51.04;100619.13;6063602;23;20038;-78
2022/10/03 05:53:24;;;;;;;1.88;1.17;;;;;;;18.90;51.12;100627.78;6154227;23;20028;-72
2022/10/03 05:56:05;;;;;;;1.33;1.17;;;;;;;18.87;51.21;100611.47;6184549;23;20025;-73
2022/10/03 05:58:43;;;;;;;4.38;1.40;;;;;;;18.93;51.67;100636.44;6184300;23;20025;-75
2022/10/03 06:01:20;;;;;;;3.63;1.58;;;;;;;18.89;51.71;100634.63;6157890;23;20021;-80
2022/10/03 06:04:08;;;;;;;1.83;1.27;;;;;;;18.81;51.65;100633.47;6186322;23;20399;-72
2022/10/03 06:06:47;;;;;;;2.10;1.30;;;;;;;18.78;51.47;100639.78;6183805;23;20097;-76
2022/10/03 06:09:54;;;;;;;1.33;1.23;;;;;;;18.73;51.68;100642.78;6186239;23;20028;-79
2022/10/03 06:12:39;;;;;;;3.20;1.50;;;;;;;18.61;51.97;100626.44;6189778;23;20028;-76
2022/10/03 06:15:13;;;;;;;2.15;0.95;;;;;;;18.72;51.78;100635.47;6191149;23;20025;-78
2022/10/03 06:18:14;;;;;;;2.28;1.70;;;;;;;18.76;51.66;100646.94;6194116;23;20021;-78
2022/10/03 06:21:18;;;;;;;3.50;1.65;;;;;;;18.86;51.13;100649.44;6122169;23;20027;-76
2022/10/03 06:24:11;;;;;;;2.15;1.52;;;;;;;18.94;50.99;100648.59;6185699;23;20132;-77
2022/10/03 06:27:08;;;;;;;6.18;2.10;;;;;;;18.98;50.64;100655.25;6183640;23;20488;-79
2022/10/03 06:29:53;;;;;;;2.15;1.60;;;;;;;19.23;50.20;100655.53;6183736;23;20025;-78
2022/10/03 06:32:46;;;;;;;5.28;1.58;;;;;;;19.20;49.79;100642.06;6183343;23;20021;-77
2022/10/03 06:35:23;;;;;;;6.32;1.77;;;;;;;19.32;49.65;100654.34;6184570;23;20021;-77
2022/10/03 06:38:35;;;;;;;3.15;1.70;;;;;;;19.06;49.93;100631.75;6156585;23;20024;-77
2022/10/03 06:41:22;;;;;;;2.85;1.88;;;;;;;19.31;49.87;100668.84;6184406;23;20024;-80
2022/10/03 06:44:01;;;;;;;4.68;1.70;;;;;;;19.26;49.63;100667.03;6157657;23;20025;-76
2022/10/03 06:46:56;;;;;;;1.55;1.20;;;;;;;19.17;49.92;100664.19;6178723;23;20064;-77
2022/10/03 06:50:09;;;;;;;3.10;1.55;;;;;;;19.16;49.92;100668.19;6155955;23;20024;-77
2022/10/03 06:52:55;;;;;;;6.45;2.10;;;;;;;19.03;50.26;100672.03;6156837;23;20033;-78
2022/10/03 06:55:59;;;;;;;4.57;2.22;;;;;;;19.05;50.08;100672.56;6182805;23;20024;-77
2022/10/03 06:58:50;;;;;;;4.45;1.52;;;;;;;19.03;50.29;100679.72;6185790;23;20017;-81
2022/10/03 07:01:49;;;;;;;3.63;1.75;;;;;;;18.92;50.96;100679.22;6174365;23;20065;-77
2022/10/03 07:04:28;;;;;;;3.20;1.40;;;;;;;18.97;50.66;100689.53;6207350;23;20036;-77
2022/10/03 07:07:11;;;;;;;3.15;1.60;;;;;;;18.96;50.79;100697.19;6203161;23;20028;-77
2022/10/03 07:09:43;;;;;;;4.45;1.88;;;;;;;19.00;50.91;100703.84;6205272;23;20029;-78
2022/10/03 07:12:19;;;;;;;2.53;1.33;;;;;;;19.14;50.54;100703.66;6187997;23;20028;-77
2022/10/03 07:15:04;;;;;;;3.65;1.75;;;;;;;19.26;50.37;100700.16;6187477;23;20021;-77
2022/10/03 07:17:50;;;;;;;2.60;1.40;;;;;;;19.37;50.09;100705.13;6159282;23;20021;-78
2022/10/03 07:20:44;;;;;;;3.35;1.63;;;;;;;19.31;49.94;100699.97;6185351;23;20036;-77
2022/10/03 07:23:41;;;;;;;1.83;1.42;;;;;;;19.27;50.00;100697.00;6185417;23;20017;-78
2022/10/03 07:26:41;;;;;;;6.90;1.60;;;;;;;19.12;49.75;100678.53;6183183;23;20036;-77
2022/10/03 07:29:19;;;;;;;2.53;1.52;;;;;;;19.37;49.54;100713.63;6157624;23;20021;-77
2022/10/03 07:32:05;;;;;;;2.45;1.60;;;;;;;19.47;49.23;100686.13;6157953;23;20028;-78
2022/10/03 07:35:15;;;;;;;5.60;1.60;;;;;;;19.77;48.79;100704.88;6183568;23;20021;-77
2022/10/03 07:41:31;;;;;;;3.15;1.63;;;;;;;20.04;48.13;100722.63;6182882;23;20360;-77
2022/10/03 07:44:31;;;;;;;5.70;1.83;;;;;;;20.32;47.66;100720.97;6182595;23;20025;-78
2022/10/03 07:47:25;;;;;;;2.50;1.35;;;;;;;20.66;47.40;100713.44;6183046;23;20047;-77
2022/10/03 07:50:40;;;;;;;3.30;1.50;;;;;;;20.85;47.15;100715.78;6156964;23;20031;-77
2022/10/03 07:53:47;;;;;;;3.92;1.80;;;;;;;21.09;46.81;100729.28;6155345;23;20471;-77
2022/10/03 07:57:08;;;;;;;3.72;1.67;;;;;;;21.29;46.61;100733.28;6134402;23;20025;-77
2022/10/03 07:59:54;;;;;;;2.83;1.60;;;;;;;21.42;46.28;100735.03;6181005;23;20017;-77
2022/10/03 08:02:58;;;;;;;6.30;1.83;;;;;;;21.53;45.75;100741.91;6183153;23;20025;-78
2022/10/03 08:05:58;;;;;;;3.92;1.90;;;;;;;21.65;45.06;100734.63;6158259;23;20401;-77
2022/10/03 08:09:20;;;;;;;4.25;1.52;;;;;;;21.75;44.91;100742.72;6182238;23;20025;-76
2022/10/03 08:12:30;;;;;;;2.60;1.92;;;;;;;21.94;44.35;100739.28;6157088;23;20024;-77
2022/10/03 08:15:19;;;;;;;2.45;1.40;;;;;;;22.02;44.20;100741.22;6182911;23;20032;-76
2022/10/03 08:18:18;;;;;;;3.40;1.77;;;;;;;22.35;43.78;100754.53;6183405;23;20399;-76
2022/10/03 08:21:12;;;;;;;4.18;1.50;;;;;;;22.79;43.44;100755.56;6156917;23;20021;-76
2022/10/03 08:24:10;;;;;;;5.65;2.53;;;;;;;23.16;44.31;100755.50;6181763;23;20017;-76
2022/10/03 08:27:06;;;;;;;2.42;1.92;;;;;;;23.57;43.40;100740.00;6156472;23;20134;-77
2022/10/03 08:30:18;;;;;;;5.13;1.70;;;;;;;24.01;42.67;100757.13;6183190;23;20036;-77
2022/10/03 08:33:50;;;;;;;3.25;1.40;;;;;;;24.43;42.49;100752.91;6162876;23;20092;-77
2022/10/03 08:36:39;;;;;;;4.10;1.77;;;;;;;24.72;41.47;100763.00;6211533;23;20103;-81
2022/10/03 08:39:12;;;;;;;2.58;1.40;;;;;;;24.95;41.63;100745.97;6211223;23;20072;-80
2022/10/03 08:42:06;;;;;;;3.75;1.40;;;;;;;25.02;40.87;100761.22;6231411;23;20017;-80
2022/10/03 08:44:56;;;;;;;3.05;1.58;;;;;;;25.00;39.80;100735.09;6194019;23;20020;-80
2022/10/03 08:47:56;;;;;;;2.25;1.42;;;;;;;25.06;39.14;100759.31;6134098;23;20024;-81
2022/10/03 08:50:32;;;;;;;3.38;1.27;;;;;;;25.17;38.99;100768.16;6219688;23;20043;-79
2022/10/03 08:53:19;;;;;;;4.18;1.50;;;;;;;25.40;38.87;100758.81;6192986;23;20348;-81
2022/10/03 08:56:03;;;;;;;2.85;1.60;;;;;;;25.76;38.55;100766.09;6219042;23;20076;-82
2022/10/03 08:58:56;;;;;;;5.07;1.85;;;;;;;25.71;38.58;100718.59;6192767;23;20021;-81
2022/10/03 09:01:25;;;;;;;5.25;2.35;;;;;;;26.38;38.13;100777.44;6214599;23;20021;-80
2022/10/03 09:03:52;;;;;;;4.88;2.10;;;;;;;26.75;37.99;100771.13;6219957;23;20024;-80
2022/10/03 09:06:46;;;;;;;4.65;1.80;;;;;;;27.16;37.87;100761.53;6219256;23;20028;-81
2022/10/03 09:09:34;;;;;;;4.47;1.77;;;;;;;27.52;36.75;100778.34;6220031;23;20086;-82
2022/10/03 09:12:31;;;;;;;4.90;1.83;;;;;;;27.75;36.32;100766.75;6194572;23;20016;-81
2022/10/03 09:15:21;;;;;;;3.35;1.73;;;;;;;28.02;36.05;100776.91;6209740;23;20044;-81
2022/10/03 09:18:12;;;;;;;3.75;2.05;;;;;;;28.09;36.01;100742.53;6235879;23;20029;-80
2022/10/03 09:21:05;;;;;;;4.47;1.70;;;;;;;28.56;35.03;100792.63;6235936;23;20025;-79
2022/10/03 09:23:51;;;;;;;7.50;1.70;;;;;;;28.69;35.30;100781.66;6212815;23;20016;-80
2022/10/03 09:26:27;;;;;;;2.75;1.50;;;;;;;29.03;34.32;100795.88;6238856;23;20108;-80
2022/10/03 09:29:15;;;;;;;5.03;2.15;;;;;;;29.24;34.15;100793.13;6221133;23;20227;-80
2022/10/03 09:32:06;;;;;;;3.35;1.67;;;;;;;29.36;34.19;100794.81;6215944;23;20020;-81
2022/10/03 09:34:42;;;;;;;2.72;1.92;;;;;;;29.43;33.53;100796.88;6189509;23;20039;-81
2022/10/03 09:38:02;;;;;;;3.92;1.50;;;;;;;29.41;33.84;100777.16;6215800;23;20024;-79
2022/10/03 09:40:47;;;;;;;3.28;1.80;;;;;;;29.60;32.68;100767.38;6167660;23;20020;-80
2022/10/03 09:43:28;;;;;;;2.50;1.80;;;;;;;29.92;32.39;100793.41;6215572;23;20023;-80
2022/10/03 09:46:29;;;;;;;2.85;1.65;;;;;;;30.05;32.42;100793.84;6215594;23;20359;-79
2022/10/03 09:49:20;;;;;;;4.95;2.40;;;;;;;30.10;31.97;100786.88;6215190;23;20024;-80
2022/10/03 09:51:54;;;;;;;4.72;2.03;;;;;;;30.27;32.08;100797.63;6215025;23;20016;-81
2022/10/03 09:54:31;;;;;;;6.95;2.30;;;;;;;30.41;31.91;100788.97;6214499;23;20025;-81
2022/10/03 09:57:19;;;;;;;8.07;3.55;;;;;;;30.66;31.40;100782.38;6215839;23;20025;-81
2022/10/03 10:00:14;;;;;;;5.10;1.80;;;;;;;30.88;31.78;100772.50;6188673;23;20024;-81
2022/10/03 10:02:50;;;;;;;4.25;2.63;;;;;;;31.14;31.17;100782.72;6215170;23;20024;-81
2022/10/03 10:05:20;;;;;;;3.95;2.20;;;;;;;31.13;31.15;100774.50;6189938;23;20020;-81
2022/10/03 10:07:58;;;;;;;4.07;2.22;;;;;;;31.21;30.88;100790.53;6215287;23;20031;-80
2022/10/03 10:11:00;;;;;;;3.13;2.35;;;;;;;31.52;30.43;100779.31;6215543;23;20044;-81
2022/10/03 10:13:45;;;;;;;8.15;2.28;;;;;;;32.07;30.28;100796.81;6188600;23;20016;-81
2022/10/03 10:16:44;;;;;;;6.05;2.35;;;;;;;32.40;29.60;100759.81;6215398;23;20025;-81
2022/10/03 10:19:29;;;;;;;5.40;2.38;;;;;;;32.74;29.50;100783.06;6189418;23;20035;-79
2022/10/03 10:22:15;;;;;;;5.15;2.50;;;;;;;32.95;29.58;100787.84;6189742;23;20568;-81
2022/10/03 10:25:00;;;;;;;8.00;3.53;;;;;;;33.19;29.51;100790.91;6188082;23;20062;-81
2022/10/03 10:27:49;;;;;;;6.25;2.53;;;;;;;33.57;28.68;100788.00;6189565;23;20020;-82
2022/10/03 10:30:15;;;;;;;4.03;2.33;;;;;;;33.67;27.94;100795.72;6188257;23;20033;-80
2022/10/03 10:33:20;;;;;;;3.45;2.30;;;;;;;33.84;28.26;100799.63;6214629;23;20021;-80
2022/10/03 10:36:25;;;;;;;5.53;2.63;;;;;;;34.14;28.27;100793.03;6187862;23;20035;-81
2022/10/03 10:39:21;;;;;;;6.05;2.40;;;;;;;34.29;28.18;100787.81;6188775;23;20017;-80
2022/10/03 10:42:25;;;;;;;6.03;2.20;;;;;;;34.46;27.63;100789.59;6214548;23;20062;-80
2022/10/03 10:45:13;;;;;;;3.83;1.92;;;;;;;34.23;27.20;100789.59;6213083;23;20016;-81
2022/10/03 10:48:21;;;;;;;4.15;1.75;;;;;;;34.14;27.51;100775.63;6189025;23;20031;-81
2022/10/03 10:51:04;;;;;;;2.20;1.92;;;;;;;34.61;27.23;100811.34;6216148;23;20021;-80
2022/10/03 10:54:08;;;;;;;5.72;2.00;;;;;;;34.93;27.32;100797.53;6215795;23;20020;-79
2022/10/03 10:57:02;;;;;;;2.53;2.00;;;;;;;35.12;26.91;100800.50;6214985;23;20030;-80
2022/10/03 10:59:53;;;;;;;3.97;2.00;;;;;;;35.10;26.53;100800.13;6215416;23;20059;-80
2022/10/03 11:02:32;;;;;;;2.88;2.00;;;;;;;35.44;26.50;100804.03;6187623;23;20031;-81
2022/10/03 11:05:37;;;;;;;3.03;2.05;;;;;;;36.22;25.84;100807.34;6187666;23;20028;-81
2022/10/03 11:08:22;;;;;;;4.63;2.00;;;;;;;37.46;24.58;100805.34;6213157;23;20460;-79
2022/10/03 11:11:07;;;;;;;2.83;1.77;;;;;;;37.77;23.60;100819.44;6215127;23;20043;-81
2022/10/03 11:13:40;;;;;;;3.22;1.85;;;;;;;37.63;24.22;100806.09;6213296;23;20020;-79
2022/10/03 11:16:30;;;;;;;6.05;2.20;;;;;;;37.52;23.77;100808.53;6188100;23;20017;-80
2022/10/03 11:19:10;;;;;;;8.68;2.63;;;;;;;36.99;24.18;100789.19;6188418;23;20016;-80
2022/10/03 11:21:49;;;;;;;5.35;1.90;;;;;;;37.01;23.86;100817.84;6188142;23;20028;-78
2022/10/03 11:24:34;;;;;;;2.90;1.95;;;;;;;37.16;23.83;100797.88;6212321;23;20046;-81
2022/10/03 11:27:06;;;;;;;4.63;2.70;;;;;;;37.32;23.17;100808.66;6186538;23;20448;-79
2022/10/03 11:29:51;;;;;;;4.60;2.28;;;;;;;37.34;23.49;100804.03;6212244;23;20043;-80
2022/10/03 11:32:46;;;;;;;9.35;2.00;;;;;;;37.47;23.37;100810.75;6214962;23;20027;-81
2022/10/03 11:36:08;;;;;;;4.63;1.98;;;;;;;37.39;22.70;100803.44;6189255;23;20028;-81
2022/10/03 11:39:03;;;;;;;5.95;1.83;;;;;;;37.57;22.85;100767.16;6180804;23;20071;-81
2022/10/03 11:41:49;;;;;;;7.30;1.88;;;;;;;38.16;22.63;100804.47;6216039;23;20067;-82
2022/10/03 11:44:30;;;;;;;4.35;2.38;;;;;;;38.73;22.55;100804.69;6215102;23;20024;-80
2022/10/03 11:47:27;;;;;;;3.22;1.80;;;;;;;39.38;21.73;100806.16;6189034;23;20027;-82
2022/10/03 11:50:00;;;;;;;3.15;1.60;;;;;;;39.73;20.87;100806.09;6215706;23;20084;-80
2022/10/03 11:52:40;;;;;;;2.92;1.75;;;;;;;39.52;20.44;100802.72;6219350;23;20023;-78
2022/10/03 11:55:19;;;;;;;2.53;2.00;;;;;;;39.36;20.29;100807.94;6237870;23;20064;-79
2022/10/03 11:58:02;;;;;;;5.15;1.80;;;;;;;39.35;20.46;100795.41;6210962;23;20048;-81
2022/10/03 12:00:35;;;;;;;8.63;3.10;;;;;;;38.88;20.40;100766.28;6202766;23;20020;-79
2022/10/03 12:03:20;;;;;;;5.07;2.45;;;;;;;38.93;20.72;100797.78;6218001;23;20024;-80
2022/10/03 12:09:06;;;;;;;6.87;2.60;;;;;;;39.11;20.54;100809.63;6216796;23;20538;-81
2022/10/03 12:11:42;;;;;;;10.35;2.78;;;;;;;39.06;20.58;100786.88;6216157;23;20023;-80
2022/10/03 12:14:09;;;;;;;7.65;2.33;;;;;;;39.17;20.15;100804.00;6216544;23;20100;-80
2022/10/03 12:17:05;;;;;;;3.55;1.85;;;;;;;39.10;20.82;100784.63;6189935;23;20029;-80
2022/10/03 12:19:36;;;;;;;5.90;2.60;;;;;;;39.14;20.01;100764.06;6191914;23;20016;-81
2022/10/03 12:22:03;;;;;;;7.40;2.40;;;;;;;39.58;19.83;100805.81;6191200;23;20478;-80
2022/10/03 12:24:41;;;;;;;7.35;2.70;;;;;;;39.76;19.73;100776.75;6192500;23;20024;-80
2022/10/03 12:27:08;;;;;;;7.38;2.28;;;;;;;40.07;19.72;100792.66;6216092;23;20021;-81
2022/10/03 12:29:41;;;;;;;3.60;2.20;;;;;;;40.30;19.33;100765.81;6191503;23;20028;-80
2022/10/03 12:32:23;;;;;;;10.88;2.83;;;;;;;40.68;19.05;100785.94;6215566;23;20356;-85
2022/10/03 12:35:01;;;;;;;8.65;2.85;;;;;;;40.80;19.02;100795.09;6216216;23;20048;-81
2022/10/03 12:37:28;;;;;;;7.30;2.45;;;;;;;40.54;18.81;100795.31;6190755;23;20032;-82
2022/10/03 12:40:14;;;;;;;7.13;2.80;;;;;;;40.51;18.99;100769.91;6217582;23;20476;-81
2022/10/03 12:42:46;;;;;;;5.95;2.75;;;;;;;40.99;18.97;100782.06;6217097;23;20021;-82
2022/10/03 12:45:18;;;;;;;6.63;2.58;;;;;;;41.70;18.22;100778.00;6190818;23;20478;-81
2022/10/03 12:47:57;;;;;;;5.35;2.38;;;;;;;42.17;18.04;100800.06;6215306;23;20327;-81
2022/10/03 12:50:30;;;;;;;3.78;2.80;;;;;;;42.45;17.52;100780.22;6189191;23;20040;-80
2022/10/03 12:53:16;;;;;;;8.80;3.40;;;;;;;42.80;17.55;100776.75;6189042;23;20017;-80
2022/10/03 12:56:01;;;;;;;8.20;2.67;;;;;;;42.99;17.59;100784.13;6216756;23;20024;-80
2022/10/03 12:59:01;;;;;;;6.22;2.28;;;;;;;43.09;17.04;100775.25;6216012;23;20058;-80
2022/10/03 13:01:52;;;;;;;6.40;2.80;;;;;;;43.12;16.98;100780.16;6215168;23;20027;-80
2022/10/03 13:04:23;;;;;;;7.68;2.30;;;;;;;43.14;16.77;100786.31;6190187;23;20060;-81
2022/10/03 13:07:16;;;;;;;3.45;2.28;;;;;;;42.80;17.13;100742.31;6215711;23;20016;-82
2022/10/03 13:10:09;;;;;;;4.57;1.98;;;;;;;41.47;18.09;100761.91;6190099;23;20100;-83
2022/10/03 13:12:38;;;;;;;4.57;2.08;;;;;;;39.48;19.45;100783.66;6216044;23;20470;-80
2022/10/03 13:15:43;;;;;;;3.88;1.67;;;;;;;37.91;20.55;100757.81;6216119;23;20119;-78